Search for airport 
image banner adimage banner ad
image banner ad

TUPA - The Settlement/Auguste George Airport (Anegada Is-B.V.I)

Located in Settlement, Virgin Islands British

ICAO - TUPA, IATA - NGD

Data provided by Airmate  

General information

Coordinates: N18°43'40" W64°19'43"
Elevation is 13 feet MSL.
 
Rated:
View ratings: [VIEW]


View others Airports in (unassigned)

Operational data

Open for public use
Current time UTC:
Current local time:
Weather at : TUPJ - Terrance B Lettsome Intl ( 39 km )
METAR: TUPJ 062300Z 09008KT 10SM SCT020 29/23 A3000 RMK Q1016 VIS16KM
TAF: TAF TUPJ 061700Z 0618/0718 10012KT 9999 SCT020 PROB40 TEMPO 0700/0718 SHRA
View NOTAMs / SUP AIP / TFR affecting this airport [VIEW]
Communications frequencies: [VIEW]

Runways:

RWY identifierQFULength (ft)Width (ft)SurfaceLDA (ft)
0974°250059UNK
27254°269059

Airport contact information

Address: Settlement Virgin Islands British

Satellite view of TUPA